createdAt,value
2022-12-15T00:00:11.990Z,-4.71
2022-12-15T00:02:58.451Z,-4.69
2022-12-15T00:05:50.004Z,-4.70
2022-12-15T00:08:36.523Z,-4.68
2022-12-15T00:11:24.076Z,-4.70
2022-12-15T00:14:13.632Z,-4.73
2022-12-15T00:16:59.366Z,-4.71
2022-12-15T00:19:46.385Z,-4.68
2022-12-15T00:22:33.747Z,-4.73
2022-12-15T00:25:20.780Z,-4.73
2022-12-15T00:28:06.803Z,-4.75
2022-12-15T00:30:56.152Z,-4.74
2022-12-15T00:33:44.959Z,-4.74
2022-12-15T00:36:30.990Z,-4.72
2022-12-15T00:39:03.922Z,-4.69
2022-12-15T00:41:32.748Z,-4.71
2022-12-15T00:44:02.035Z,-4.70
2022-12-15T00:46:47.749Z,-4.68
2022-12-15T00:49:30.239Z,-4.62
2022-12-15T00:52:16.311Z,-4.60
2022-12-15T00:55:03.880Z,-4.56
2022-12-15T00:57:49.544Z,-4.53
2022-12-15T01:00:36.103Z,-4.51
2022-12-15T01:03:29.602Z,-4.50
2022-12-15T01:06:16.072Z,-4.51
2022-12-15T01:09:01.804Z,-4.50
2022-12-15T01:11:49.301Z,-4.53
2022-12-15T01:14:35.408Z,-4.51
2022-12-15T01:17:21.631Z,-4.51
2022-12-15T01:20:07.389Z,-4.48
2022-12-15T01:22:37.579Z,-4.44
2022-12-15T01:25:06.967Z,-4.45
2022-12-15T01:27:36.949Z,-4.44
2022-12-15T01:30:08.204Z,-4.45
2022-12-15T01:32:42.726Z,-4.45
2022-12-15T01:35:14.664Z,-4.43
2022-12-15T01:37:43.025Z,-4.44
2022-12-15T01:40:31.616Z,-4.41
2022-12-15T01:43:01.949Z,-4.38
2022-12-15T01:45:49.751Z,-4.41
2022-12-15T01:48:25.212Z,-4.38
2022-12-15T01:51:04.926Z,-4.43
2022-12-15T01:53:37.651Z,-4.44
2022-12-15T01:56:09.374Z,-4.45
2022-12-15T01:58:44.505Z,-4.48
2022-12-15T02:01:13.429Z,-4.49
2022-12-15T02:03:44.248Z,-4.48
2022-12-15T02:06:13.168Z,-4.49
2022-12-15T02:08:45.628Z,-4.49
2022-12-15T02:11:45.614Z,-4.53
2022-12-15T02:14:23.014Z,-4.55
2022-12-15T02:17:08.090Z,-4.55
2022-12-15T02:20:06.399Z,-4.57
2022-12-15T02:22:56.987Z,-4.61
2022-12-15T02:25:43.365Z,-4.63
2022-12-15T02:28:15.657Z,-4.63
2022-12-15T02:31:12.688Z,-4.67
2022-12-15T02:33:52.324Z,-4.72
2022-12-15T02:36:34.231Z,-4.74
2022-12-15T02:39:02.867Z,-4.76
2022-12-15T02:41:37.115Z,-4.80
2022-12-15T02:44:12.526Z,-4.80
2022-12-15T02:46:55.689Z,-4.86
2022-12-15T02:49:35.460Z,-4.96
2022-12-15T02:52:17.442Z,-5.02
2022-12-15T02:55:13.133Z,-5.07
2022-12-15T02:57:49.197Z,-5.11
2022-12-15T03:00:18.914Z,-5.16
2022-12-15T03:02:51.238Z,-5.20
2022-12-15T03:05:21.745Z,-5.23
2022-12-15T03:07:51.124Z,-5.27
2022-12-15T03:10:23.382Z,-5.37
2022-12-15T03:12:52.070Z,-5.47
2022-12-15T03:15:20.685Z,-5.51
2022-12-15T03:17:50.351Z,-5.58
2022-12-15T03:20:18.565Z,-5.65
2022-12-15T03:22:47.082Z,-5.69
2022-12-15T03:25:16.176Z,-5.63
2022-12-15T03:27:47.364Z,-5.67
2022-12-15T03:30:16.471Z,-5.72
2022-12-15T03:32:44.777Z,-5.74
2022-12-15T03:35:14.937Z,-5.80
2022-12-15T03:37:43.782Z,-5.87
2022-12-15T03:40:13.902Z,-5.98
2022-12-15T03:42:52.853Z,-6.09
2022-12-15T03:45:24.142Z,-6.17
2022-12-15T03:47:53.457Z,-6.20
2022-12-15T03:50:24.711Z,-6.23
2022-12-15T03:52:54.338Z,-6.36
2022-12-15T03:55:23.324Z,-6.47
2022-12-15T03:57:52.491Z,-6.56
2022-12-15T04:00:22.462Z,-6.59
2022-12-15T04:02:52.263Z,-6.64
2022-12-15T04:05:25.884Z,-6.65
2022-12-15T04:07:54.349Z,-6.71
2022-12-15T04:10:22.923Z,-6.74
2022-12-15T04:12:57.916Z,-6.81
2022-12-15T04:15:26.420Z,-6.86
2022-12-15T04:17:55.015Z,-6.93
2022-12-15T04:20:26.325Z,-6.98
2022-12-15T04:22:55.167Z,-6.95
2022-12-15T04:25:43.385Z,-6.94
2022-12-15T04:28:30.108Z,-6.89
2022-12-15T04:31:19.676Z,-6.88
2022-12-15T04:34:08.641Z,-6.87
2022-12-15T04:36:58.094Z,-6.85
2022-12-15T04:39:44.655Z,-6.84
2022-12-15T04:42:30.287Z,-6.88
2022-12-15T04:45:20.876Z,-6.89
2022-12-15T04:48:07.205Z,-6.92
2022-12-15T04:50:54.048Z,-6.91
2022-12-15T04:53:41.133Z,-6.84
2022-12-15T04:56:29.886Z,-6.81
2022-12-15T04:59:15.848Z,-6.79
2022-12-15T05:02:02.242Z,-6.75
2022-12-15T05:04:49.330Z,-6.69
2022-12-15T05:07:35.565Z,-6.65
2022-12-15T05:10:25.203Z,-6.63
2022-12-15T05:13:11.155Z,-6.59
2022-12-15T05:15:56.897Z,-6.58
2022-12-15T05:18:42.861Z,-6.53
2022-12-15T05:21:28.908Z,-6.50
2022-12-15T05:24:14.801Z,-6.46
2022-12-15T05:27:02.330Z,-6.38
2022-12-15T05:29:48.537Z,-6.36
2022-12-15T05:32:17.310Z,-6.28
2022-12-15T05:34:45.800Z,-6.27
2022-12-15T05:37:14.098Z,-6.30
2022-12-15T05:39:42.431Z,-6.35
2022-12-15T05:42:12.443Z,-6.41
2022-12-15T05:44:41.123Z,-6.45
2022-12-15T05:47:09.692Z,-6.49
2022-12-15T05:49:38.071Z,-6.53
2022-12-15T05:52:09.755Z,-6.60
2022-12-15T05:54:38.288Z,-6.75
2022-12-15T05:57:06.837Z,-6.84
2022-12-15T05:59:36.745Z,-6.95
2022-12-15T06:02:05.404Z,-6.98
2022-12-15T06:04:35.779Z,-7.12
2022-12-15T06:07:04.676Z,-7.19
2022-12-15T06:09:32.904Z,-7.25
2022-12-15T06:12:01.495Z,-7.37
2022-12-15T06:14:31.181Z,-7.45
2022-12-15T06:17:01.171Z,-7.52
2022-12-15T06:19:29.761Z,-7.61
2022-12-15T06:21:58.560Z,-7.66
2022-12-15T06:24:27.024Z,-7.62
2022-12-15T06:26:55.250Z,-7.55
2022-12-15T06:29:24.220Z,-7.68
2022-12-15T06:31:52.739Z,-7.73
2022-12-15T06:34:22.357Z,-7.73
2022-12-15T06:36:51.179Z,-7.74
2022-12-15T06:39:20.640Z,-7.78
2022-12-15T06:41:48.820Z,-7.74
2022-12-15T06:44:17.558Z,-7.85
2022-12-15T06:46:46.647Z,-7.91
2022-12-15T06:49:15.718Z,-7.91
2022-12-15T06:51:46.584Z,-7.97
2022-12-15T06:54:15.513Z,-8.00
2022-12-15T06:56:43.989Z,-7.94
2022-12-15T06:59:13.670Z,-7.79
2022-12-15T07:01:43.989Z,-7.61
2022-12-15T07:04:12.867Z,-7.53
2022-12-15T07:06:42.402Z,-7.53
2022-12-15T07:09:17.452Z,-7.37
2022-12-15T07:11:49.742Z,-7.40
2022-12-15T07:14:18.241Z,-7.56
2022-12-15T07:16:46.560Z,-7.61
2022-12-15T07:19:15.166Z,-7.65
2022-12-15T07:21:43.514Z,-7.57
2022-12-15T07:24:16.324Z,-7.58
2022-12-15T07:26:46.113Z,-7.64
2022-12-15T07:29:22.841Z,-7.78
2022-12-15T07:31:52.145Z,-7.79
2022-12-15T07:34:20.995Z,-7.62
2022-12-15T07:36:52.427Z,-7.66
2022-12-15T07:39:22.686Z,-7.68
2022-12-15T07:41:51.350Z,-7.75
2022-12-15T07:44:19.844Z,-7.69
2022-12-15T07:46:49.427Z,-7.72
2022-12-15T07:49:20.279Z,-7.74
2022-12-15T07:51:48.527Z,-7.69
2022-12-15T07:54:17.193Z,-7.57
2022-12-15T07:56:50.306Z,-7.48
2022-12-15T07:59:19.947Z,-7.35
2022-12-15T08:01:49.994Z,-7.27
2022-12-15T08:04:18.901Z,-7.20
2022-12-15T08:06:47.161Z,-7.17
2022-12-15T08:09:16.662Z,-7.15
2022-12-15T08:11:45.017Z,-7.17
2022-12-15T08:14:18.027Z,-7.10
2022-12-15T08:16:47.688Z,-7.11
2022-12-15T08:19:17.836Z,-7.14
2022-12-15T08:21:47.321Z,-7.15
2022-12-15T08:24:16.754Z,-7.13
2022-12-15T08:26:50.052Z,-7.18
2022-12-15T08:29:50.211Z,-7.19
2022-12-15T08:32:10.340Z,-7.20
2022-12-15T08:34:42.523Z,-7.22
2022-12-15T08:37:11.324Z,-7.14
2022-12-15T08:39:40.323Z,-7.15
2022-12-15T08:42:08.649Z,-7.05
2022-12-15T08:44:39.004Z,-7.04
2022-12-15T08:47:08.405Z,-7.02
2022-12-15T08:49:36.666Z,-6.97
2022-12-15T08:52:05.106Z,-6.89
2022-12-15T08:54:33.534Z,-6.82
2022-12-15T08:57:01.969Z,-6.72
2022-12-15T08:59:30.373Z,-6.66
2022-12-15T09:02:00.660Z,-6.64
2022-12-15T09:04:29.306Z,-6.53
2022-12-15T09:06:57.722Z,-6.46
2022-12-15T09:09:26.605Z,-6.46
2022-12-15T09:11:55.171Z,-6.45
2022-12-15T09:14:29.161Z,-6.46
2022-12-15T09:17:00.740Z,-6.49
2022-12-15T09:19:30.623Z,-6.49
2022-12-15T09:21:59.642Z,-6.54
2022-12-15T09:24:34.687Z,-6.55
2022-12-15T09:27:04.707Z,-6.49
2022-12-15T09:29:33.960Z,-6.42
2022-12-15T09:32:06.585Z,-6.33
2022-12-15T09:34:39.260Z,-6.23
2022-12-15T09:37:07.691Z,-6.10
2022-12-15T09:39:36.277Z,-5.93
2022-12-15T09:42:04.709Z,-5.78
2022-12-15T09:44:34.826Z,-5.64
2022-12-15T09:47:13.261Z,-5.41
2022-12-15T09:49:56.029Z,-5.28
2022-12-15T09:52:27.573Z,-5.14
2022-12-15T09:54:56.602Z,-5.09
2022-12-15T09:57:34.820Z,-5.00
2022-12-15T10:00:17.582Z,-4.98
2022-12-15T10:03:30.435Z,-4.89
2022-12-15T10:06:16.017Z,-4.80
2022-12-15T10:08:50.493Z,-4.82
2022-12-15T10:11:24.911Z,-4.64
2022-12-15T10:13:57.614Z,-4.64
2022-12-15T10:16:32.567Z,-4.63
2022-12-15T10:19:22.135Z,-4.71
2022-12-15T10:21:54.914Z,-4.51
2022-12-15T10:25:00.362Z,-4.35
2022-12-15T10:27:28.453Z,-4.20
2022-12-15T10:30:02.587Z,-4.32
2022-12-15T10:32:43.863Z,-4.57
2022-12-15T10:35:18.051Z,-4.53
2022-12-15T10:37:46.271Z,-4.40
2022-12-15T10:40:40.686Z,-4.21
2022-12-15T10:43:15.099Z,-4.09
2022-12-15T10:45:43.949Z,-4.23
2022-12-15T10:48:21.829Z,-4.26
2022-12-15T10:51:15.104Z,-4.17
2022-12-15T10:53:50.269Z,-3.93
2022-12-15T10:56:30.642Z,-3.97
2022-12-15T10:59:03.643Z,-3.99
2022-12-15T11:01:34.495Z,-3.92
2022-12-15T11:04:03.136Z,-4.00
2022-12-15T11:06:36.805Z,-3.79
2022-12-15T11:09:10.525Z,-3.75
2022-12-15T11:12:05.680Z,-3.69
2022-12-15T11:14:44.606Z,-3.66
2022-12-15T11:17:17.092Z,-3.63
2022-12-15T11:19:58.241Z,-3.63
2022-12-15T11:22:47.945Z,-3.49
2022-12-15T11:25:35.719Z,-3.49
2022-12-15T11:28:10.513Z,-3.53
2022-12-15T11:30:46.268Z,-3.53
2022-12-15T11:33:15.733Z,-3.40
2022-12-15T11:36:00.102Z,-3.14
2022-12-15T11:38:36.572Z,-3.36
2022-12-15T11:41:15.141Z,-3.20
2022-12-15T11:44:13.826Z,-3.21
2022-12-15T11:46:47.973Z,-3.19
2022-12-15T11:49:46.442Z,-2.91
2022-12-15T11:52:36.380Z,-2.94
2022-12-15T11:55:13.744Z,-3.05
2022-12-15T11:57:57.533Z,-3.13
2022-12-15T12:00:26.194Z,-2.95
2022-12-15T12:03:09.509Z,-2.99
2022-12-15T12:05:48.861Z,-3.11
2022-12-15T12:08:32.776Z,-3.17
2022-12-15T12:11:09.829Z,-3.17
2022-12-15T12:13:48.125Z,-3.23
2022-12-15T12:16:32.846Z,-3.16
2022-12-15T12:19:05.660Z,-3.14
2022-12-15T12:21:40.468Z,-3.10
2022-12-15T12:24:16.858Z,-3.01
2022-12-15T12:26:51.845Z,-2.97
2022-12-15T12:29:29.703Z,-2.94
2022-12-15T12:32:06.117Z,-2.79
2022-12-15T12:34:51.986Z,-2.82
2022-12-15T12:37:44.564Z,-2.82
2022-12-15T12:40:21.264Z,-2.59
2022-12-15T12:42:55.645Z,-2.78
2022-12-15T12:45:28.117Z,-2.69
2022-12-15T12:48:01.122Z,-2.63
2022-12-15T12:50:31.676Z,-2.34
2022-12-15T12:53:03.602Z,-2.38
2022-12-15T12:55:39.847Z,-2.38
2022-12-15T12:58:35.239Z,-2.21
2022-12-15T13:01:19.630Z,-2.21
2022-12-15T13:04:08.093Z,-2.20
2022-12-15T13:07:03.086Z,-2.16
2022-12-15T13:10:02.067Z,-2.32
2022-12-15T13:12:50.857Z,-2.39
2022-12-15T13:15:38.886Z,-2.42
2022-12-15T13:18:18.272Z,-2.53
2022-12-15T13:20:50.761Z,-2.74
2022-12-15T13:23:44.505Z,-2.95
2022-12-15T13:26:19.388Z,-2.85
2022-12-15T13:28:53.155Z,-3.05
2022-12-15T13:31:34.187Z,-2.95
2022-12-15T13:34:14.053Z,-3.14
2022-12-15T13:36:54.260Z,-3.16
2022-12-15T13:39:58.828Z,-3.10
2022-12-15T13:42:45.287Z,-3.03
2022-12-15T13:45:42.706Z,-3.06
2022-12-15T13:48:31.078Z,-3.13
2022-12-15T13:51:05.013Z,-3.11
2022-12-15T13:53:41.914Z,-2.90
2022-12-15T13:56:26.404Z,-2.77
2022-12-15T13:59:01.758Z,-2.77
2022-12-15T14:01:33.750Z,-2.70
2022-12-15T14:04:15.600Z,-2.76
2022-12-15T14:06:50.832Z,-2.87
2022-12-15T14:09:24.150Z,-2.91
2022-12-15T14:11:54.124Z,-2.90
2022-12-15T14:14:26.012Z,-2.89
2022-12-15T14:16:59.288Z,-2.90
2022-12-15T14:19:38.662Z,-2.80
2022-12-15T14:22:29.468Z,-2.80
2022-12-15T14:25:04.921Z,-2.78
2022-12-15T14:27:34.599Z,-2.79
2022-12-15T14:30:11.294Z,-2.73
2022-12-15T14:32:40.775Z,-2.69
2022-12-15T14:35:15.660Z,-2.74
2022-12-15T14:37:44.919Z,-2.71
2022-12-15T14:40:17.744Z,-2.84
2022-12-15T14:42:50.676Z,-2.98
2022-12-15T14:45:21.759Z,-3.19
2022-12-15T14:50:49.340Z,-3.37
2022-12-15T14:53:22.396Z,-3.24
2022-12-15T14:55:51.654Z,-3.19
2022-12-15T14:58:28.887Z,-3.28
2022-12-15T15:00:58.961Z,-3.30
2022-12-15T15:03:14.461Z,-3.27
2022-12-15T15:03:28.657Z,-3.48
2022-12-15T15:05:59.630Z,-3.44
2022-12-15T15:08:31.770Z,-3.44
2022-12-15T15:11:03.233Z,-3.48
2022-12-15T15:13:40.147Z,-3.59
2022-12-15T15:16:16.064Z,-3.65
2022-12-15T15:18:46.109Z,-3.56
2022-12-15T15:21:22.350Z,-3.67
2022-12-15T15:24:02.659Z,-3.69
2022-12-15T15:26:32.419Z,-3.69
2022-12-15T15:29:04.053Z,-3.71
2022-12-15T15:31:41.417Z,-3.67
2022-12-15T15:34:11.561Z,-3.84
2022-12-15T15:36:41.718Z,-3.81
2022-12-15T15:39:14.992Z,-3.90
2022-12-15T15:41:43.762Z,-3.98
2022-12-15T15:44:14.972Z,-4.13
2022-12-15T15:46:49.813Z,-4.23
2022-12-15T15:49:20.441Z,-4.38
2022-12-15T15:51:50.663Z,-4.42
2022-12-15T15:54:23.907Z,-4.24
2022-12-15T15:56:52.449Z,-4.21
2022-12-15T15:59:22.433Z,-4.28
2022-12-15T16:01:55.116Z,-4.36
2022-12-15T16:04:24.256Z,-4.45
2022-12-15T16:06:54.781Z,-4.40
2022-12-15T16:09:25.950Z,-4.45
2022-12-15T16:11:55.074Z,-4.50
2022-12-15T16:14:23.335Z,-4.54
2022-12-15T16:16:53.976Z,-4.32
2022-12-15T16:19:22.236Z,-4.37
2022-12-15T16:21:52.000Z,-4.27
2022-12-15T16:24:21.795Z,-4.14
2022-12-15T16:26:51.667Z,-4.18
2022-12-15T16:29:22.064Z,-4.11
2022-12-15T16:31:50.437Z,-4.08
2022-12-15T16:34:19.523Z,-4.15
2022-12-15T16:36:48.617Z,-4.01
2022-12-15T16:39:28.253Z,-4.11
2022-12-15T16:41:58.940Z,-4.05
2022-12-15T16:44:29.394Z,-3.98
2022-12-15T16:47:00.452Z,-3.96
2022-12-15T16:49:35.170Z,-4.03
2022-12-15T16:52:12.574Z,-3.78
2022-12-15T16:54:42.314Z,-3.89
2022-12-15T16:57:12.653Z,-3.83
2022-12-15T16:59:40.732Z,-3.96
2022-12-15T17:02:24.025Z,-3.96
2022-12-15T17:04:55.231Z,-3.96
2022-12-15T17:07:26.348Z,-3.90
2022-12-15T17:09:56.411Z,-3.97
2022-12-15T17:12:24.924Z,-3.99
2022-12-15T17:14:53.232Z,-4.02
2022-12-15T17:17:22.996Z,-4.06
2022-12-15T17:20:27.391Z,-4.03
2022-12-15T17:22:40.431Z,-4.01
2022-12-15T17:25:16.848Z,-4.04
2022-12-15T17:27:48.533Z,-4.00
2022-12-15T17:30:17.485Z,-3.91
2022-12-15T17:32:46.299Z,-3.94
2022-12-15T17:35:16.166Z,-3.95
2022-12-15T17:37:46.341Z,-3.90
2022-12-15T17:40:21.480Z,-3.75
2022-12-15T17:42:51.084Z,-3.81
2022-12-15T17:45:23.299Z,-3.80
2022-12-15T17:47:52.868Z,-3.96
2022-12-15T17:50:22.118Z,-3.85
2022-12-15T17:52:50.465Z,-3.84
2022-12-15T17:55:34.627Z,-3.82
2022-12-15T17:58:07.373Z,-4.01
2022-12-15T18:00:37.158Z,-3.96
2022-12-15T18:03:06.189Z,-4.07
2022-12-15T18:05:34.603Z,-4.08
2022-12-15T18:08:08.498Z,-4.13
2022-12-15T18:10:41.462Z,-4.20
2022-12-15T18:13:17.684Z,-4.27
2022-12-15T18:15:46.680Z,-4.16
2022-12-15T18:18:16.135Z,-4.27
2022-12-15T18:20:46.792Z,-4.27
2022-12-15T18:23:16.651Z,-4.32
2022-12-15T18:25:49.605Z,-4.38
2022-12-15T18:28:23.373Z,-4.28
2022-12-15T18:30:53.292Z,-4.33
2022-12-15T18:33:22.887Z,-4.45
2022-12-15T18:35:51.773Z,-4.49
2022-12-15T18:38:22.319Z,-4.53
2022-12-15T18:40:53.768Z,-4.47
2022-12-15T18:43:24.559Z,-4.40
2022-12-15T18:45:53.800Z,-4.22
2022-12-15T18:48:26.280Z,-4.29
2022-12-15T18:50:57.154Z,-4.01
2022-12-15T18:53:29.560Z,-3.96
2022-12-15T18:56:01.507Z,-3.96
2022-12-15T18:58:31.894Z,-3.97
2022-12-15T19:01:01.998Z,-3.82
2022-12-15T19:03:31.371Z,-3.68
2022-12-15T19:06:01.835Z,-3.81
2022-12-15T19:08:32.031Z,-3.84
2022-12-15T19:11:03.505Z,-3.89
2022-12-15T19:13:34.685Z,-3.97
2022-12-15T19:16:06.448Z,-3.97
2022-12-15T19:18:53.017Z,-3.88
2022-12-15T19:21:41.555Z,-3.87
2022-12-15T19:24:14.139Z,-3.81
2022-12-15T19:26:45.657Z,-3.83
2022-12-15T19:29:18.998Z,-3.83
2022-12-15T19:31:47.667Z,-3.70
2022-12-15T19:34:16.622Z,-3.50
2022-12-15T19:36:45.191Z,-3.51
2022-12-15T19:39:23.381Z,-3.59
2022-12-15T19:41:53.314Z,-3.47
2022-12-15T19:44:23.686Z,-3.38
2022-12-15T19:46:52.307Z,-3.40
2022-12-15T19:49:22.716Z,-3.49
2022-12-15T19:51:51.545Z,-3.54
2022-12-15T19:54:23.352Z,-3.55
2022-12-15T19:56:53.086Z,-3.46
2022-12-15T19:59:25.796Z,-3.38
2022-12-15T20:01:55.037Z,-3.39
2022-12-15T20:04:24.725Z,-3.41
2022-12-15T20:06:53.320Z,-3.39
2022-12-15T20:09:21.815Z,-3.40
2022-12-15T20:11:50.207Z,-3.46
2022-12-15T20:14:20.585Z,-3.50
2022-12-15T20:16:50.990Z,-3.57
2022-12-15T20:19:20.837Z,-3.58
2022-12-15T20:21:49.084Z,-3.57
2022-12-15T20:24:20.632Z,-3.50
2022-12-15T20:26:52.624Z,-3.42
2022-12-15T20:29:28.225Z,-3.42
2022-12-15T20:31:57.822Z,-3.34
2022-12-15T20:34:28.107Z,-3.42
2022-12-15T20:36:57.886Z,-3.42
2022-12-15T20:39:29.514Z,-3.37
2022-12-15T20:41:58.492Z,-3.45
2022-12-15T20:44:28.216Z,-3.46
2022-12-15T20:46:59.415Z,-3.40
2022-12-15T20:49:28.192Z,-3.42
2022-12-15T20:51:57.775Z,-3.43
2022-12-15T20:54:26.193Z,-3.38
2022-12-15T20:56:56.994Z,-3.46
2022-12-15T20:59:25.864Z,-3.54
2022-12-15T21:01:55.659Z,-3.40
2022-12-15T21:04:26.399Z,-3.53
2022-12-15T21:06:58.075Z,-3.58
2022-12-15T21:09:28.037Z,-3.64
2022-12-15T21:11:57.123Z,-3.68
2022-12-15T21:14:26.129Z,-3.69
2022-12-15T21:16:55.811Z,-3.70
2022-12-15T21:19:24.748Z,-3.71
2022-12-15T21:21:55.231Z,-3.71
2022-12-15T21:24:26.930Z,-3.67
2022-12-15T21:26:55.574Z,-3.68
2022-12-15T21:29:25.949Z,-3.69
2022-12-15T21:31:55.622Z,-3.69
2022-12-15T21:34:23.955Z,-3.67
2022-12-15T21:36:55.551Z,-3.66
2022-12-15T21:39:29.301Z,-3.67
2022-12-15T21:42:01.139Z,-3.70
2022-12-15T21:44:30.348Z,-3.73
2022-12-15T21:47:00.381Z,-3.74
2022-12-15T21:49:27.720Z,-3.77
2022-12-15T21:51:58.459Z,-3.76
2022-12-15T21:54:31.139Z,-3.76
2022-12-15T21:57:00.660Z,-3.77
2022-12-15T21:59:30.653Z,-3.80
2022-12-15T22:02:01.401Z,-3.81
2022-12-15T22:04:32.695Z,-3.83
2022-12-15T22:07:01.088Z,-3.79
2022-12-15T22:09:29.498Z,-3.69
2022-12-15T22:11:58.185Z,-3.75
2022-12-15T22:14:29.271Z,-3.80
2022-12-15T22:16:58.828Z,-3.87
2022-12-15T22:19:28.946Z,-3.81
2022-12-15T22:21:57.403Z,-3.86
2022-12-15T22:24:25.510Z,-3.99
2022-12-15T22:26:53.856Z,-4.07
2022-12-15T22:29:27.283Z,-4.19
2022-12-15T22:31:56.003Z,-4.29
2022-12-15T22:34:26.898Z,-4.35
2022-12-15T22:36:56.663Z,-4.35
2022-12-15T22:39:25.226Z,-4.46
2022-12-15T22:41:54.079Z,-4.57
2022-12-15T22:44:25.203Z,-4.63
2022-12-15T22:46:55.435Z,-4.70
2022-12-15T22:49:31.371Z,-4.78
2022-12-15T22:52:01.405Z,-4.69
2022-12-15T22:54:31.997Z,-4.83
2022-12-15T22:57:03.957Z,-4.91
2022-12-15T22:59:36.164Z,-4.99
2022-12-15T23:02:05.460Z,-5.03
2022-12-15T23:04:34.130Z,-5.06
2022-12-15T23:07:10.341Z,-5.00
2022-12-15T23:09:39.462Z,-5.00
2022-12-15T23:12:07.574Z,-5.03
2022-12-15T23:14:54.680Z,-4.95
2022-12-15T23:17:23.300Z,-4.90
2022-12-15T23:19:51.949Z,-4.85
2022-12-15T23:22:21.677Z,-4.87
2022-12-15T23:24:49.883Z,-4.97
2022-12-15T23:27:18.371Z,-4.93
2022-12-15T23:29:46.912Z,-4.81
2022-12-15T23:32:15.427Z,-4.83
2022-12-15T23:34:43.706Z,-4.95
2022-12-15T23:37:12.201Z,-4.94
2022-12-15T23:39:41.716Z,-5.04
2022-12-15T23:42:11.848Z,-4.99
2022-12-15T23:44:40.201Z,-5.04
2022-12-15T23:47:09.059Z,-5.09
2022-12-15T23:49:37.280Z,-5.06
2022-12-15T23:52:06.071Z,-5.03
2022-12-15T23:54:34.591Z,-5.12
2022-12-15T23:57:04.677Z,-5.24
2022-12-15T23:59:33.334Z,-5.33
